Weather reports worldwide

Advertisment
Cairngorm, United Kingdom (3065): temperature & dewpoint: 15.05.2019 04:00:00 - 21.05.2019 04:00:00 (BST)Cairngorm, United Kingdom (3065): wind speed & gusts: 15.05.2019 04:00:00 - 21.05.2019 04:00:00 (BST)Cairngorm, United Kingdom (3065): wind direction: 15.05.2019 04:00:00 - 21.05.2019 04:00:00 (BST)
Date & Time tt [°C] td [°C] ff [km/h] ff [kn] fx [km/h] fx [kn] dd
21.05.2019 04:00:00 0,4 0,4 34 18 - - NW
21.05.2019 03:00:00 1,0 1,0 28 15 - - WNW
21.05.2019 02:00:00 1,6 1,6 34 18 - - NW
21.05.2019 01:00:00 2,2 2,2 34 18 - - NW
21.05.2019 00:00:00 2,8 2,8 28 15 - - NW
20.05.2019 23:00:00 3,0 3,0 31 17 - - NW
20.05.2019 22:00:00 3,0 3,0 28 15 - - NW
20.05.2019 21:00:00 2,9 2,9 31 17 46 25 NW
20.05.2019 20:00:00 3,4 3,4 29 16 - - NW
20.05.2019 19:00:00 3,7 3,7 21 11 - - NNW
20.05.2019 18:00:00 4,0 3,9 18 10 - - NNW
20.05.2019 17:00:00 3,7 3,7 16 9 - - NW
20.05.2019 16:00:00 4,2 4,2 13 7 - - W
20.05.2019 15:00:00 4,4 4,4 8 4 - - NNW
20.05.2019 14:00:00 6,2 6,2 5 3 - - W
20.05.2019 13:00:00 4,0 4,0 11 6 - - NW
20.05.2019 12:00:00 3,9 3,9 8 4 - - WNW
20.05.2019 11:00:00 3,6 3,6 9 5 - - NW
20.05.2019 10:00:00 3,9 3,9 8 4 - - NNW
20.05.2019 09:00:00 3,2 3,2 9 5 - - NW
20.05.2019 08:00:00 3,0 2,9 13 7 - - WNW
20.05.2019 07:00:00 3,0 3,0 8 4 - - NW
20.05.2019 06:00:00 3,2 3,2 11 6 - - NW
20.05.2019 05:00:00 3,1 3,1 9 5 - - WNW
20.05.2019 04:00:00 3,2 3,2 9 5 - - NW
20.05.2019 03:00:00 3,5 3,5 2 1 - - NW
20.05.2019 02:00:00 3,7 3,7 4 2 - - NW
20.05.2019 01:00:00 3,6 3,6 5 3 - - WNW
20.05.2019 00:00:00 3,2 3,2 8 4 - - WNW
19.05.2019 23:00:00 3,7 3,7 9 5 - - WNW
19.05.2019 22:00:00 4,0 4,0 5 3 - - W
19.05.2019 21:00:00 4,1 4,1 11 6 - - W
19.05.2019 20:00:00 4,3 4,3 9 5 - - WNW
19.05.2019 19:00:00 4,9 4,9 9 5 - - SSW
19.05.2019 18:00:00 5,2 5,2 9 5 - - SSW
19.05.2019 17:00:00 4,9 4,9 16 9 - - S
19.05.2019 16:00:00 5,8 5,7 15 8 - - S
19.05.2019 15:00:00 6,2 6,1 13 7 - - SSW
19.05.2019 14:00:00 5,0 5,0 16 9 - - S
19.05.2019 13:00:00 4,2 4,2 18 10 - - SSE
19.05.2019 12:00:00 4,7 4,7 13 7 - - S
19.05.2019 11:00:00 4,5 4,5 15 8 - - S
19.05.2019 10:00:00 3,9 3,9 11 6 - - SSW
19.05.2019 09:00:00 3,6 3,5 9 5 - - W
19.05.2019 08:00:00 3,1 3,1 13 7 - - SSW
19.05.2019 07:00:00 2,9 2,9 11 6 - - SSW
19.05.2019 06:00:00 2,7 2,7 13 7 - - S
19.05.2019 05:00:00 2,5 2,4 18 10 - - S
19.05.2019 04:00:00 2,5 2,4 24 13 - - SSE
19.05.2019 03:00:00 2,6 2,6 24 13 - - SSE
19.05.2019 02:00:00 2,6 2,6 22 12 - - SE
19.05.2019 01:00:00 2,5 2,5 29 16 - - SSE
19.05.2019 00:00:00 2,3 2,3 35 19 46 25 SSE
18.05.2019 23:00:00 2,3 2,3 35 19 46 25 SSE
18.05.2019 22:00:00 2,9 2,9 35 19 - - SE
18.05.2019 21:00:00 3,0 3,0 31 17 - - SE
18.05.2019 20:00:00 3,5 3,5 31 17 - - SE
18.05.2019 19:00:00 3,6 3,6 24 13 - - ESE
18.05.2019 18:00:00 3,5 3,4 22 12 - - ESE
18.05.2019 17:00:00 3,3 3,3 29 16 - - E
18.05.2019 16:00:00 3,1 3,1 28 15 - - ENE
18.05.2019 15:00:00 2,7 2,7 24 13 - - ENE
18.05.2019 14:00:00 2,2 2,2 31 17 52 28 ENE
18.05.2019 13:00:00 1,7 1,7 41 22 55 30 ENE
18.05.2019 12:00:00 1,5 1,5 35 19 72 39 ENE
18.05.2019 11:00:00 0,9 0,9 52 28 76 41 ENE
18.05.2019 10:00:00 0,9 0,9 63 34 78 42 ENE
18.05.2019 09:00:00 1,7 1,7 57 31 76 41 ENE
18.05.2019 08:00:00 2,0 2,0 52 28 76 41 NE
18.05.2019 07:00:00 2,0 2,0 50 27 70 38 ENE
18.05.2019 06:00:00 2,0 2,0 54 29 78 42 E
18.05.2019 05:00:00 1,9 1,8 59 32 91 49 E
18.05.2019 04:00:00 1,6 1,6 74 40 93 50 E
18.05.2019 03:00:00 1,6 1,6 76 41 106 57 E
18.05.2019 02:00:00 1,8 1,8 83 45 106 57 E
18.05.2019 01:00:00 1,9 1,9 78 42 102 55 E
18.05.2019 00:00:00 2,1 2,1 65 35 78 42 ESE
17.05.2019 23:00:00 2,1 2,1 61 33 85 46 E
17.05.2019 22:00:00 2,5 2,5 52 28 78 42 E
17.05.2019 21:00:00 2,7 0,0 55 30 70 38 E
17.05.2019 20:00:00 3,9 -5,6 44 24 55 30 E
17.05.2019 19:00:00 6,1 -2,7 34 18 - - ENE
17.05.2019 18:00:00 7,0 -2,7 34 18 46 25 E
17.05.2019 17:00:00 7,4 0,8 34 18 50 27 E
17.05.2019 16:00:00 9,0 1,9 39 21 55 30 E
17.05.2019 15:00:00 9,3 0,3 31 17 52 28 E
17.05.2019 14:00:00 8,0 1,3 37 20 50 27 ENE
17.05.2019 13:00:00 7,9 0,3 37 20 50 27 E
17.05.2019 12:00:00 7,3 -0,9 34 18 50 27 ESE
17.05.2019 11:00:00 5,3 -1,0 39 21 52 28 E
17.05.2019 10:00:00 4,9 -0,8 29 16 - - E
17.05.2019 09:00:00 3,3 -2,1 26 14 - - SE
17.05.2019 08:00:00 2,6 -2,4 22 12 - - SSE
17.05.2019 07:00:00 2,3 -3,0 29 16 - - SE
17.05.2019 06:00:00 2,1 -6,2 35 19 50 27 SSE
17.05.2019 05:00:00 1,8 -4,7 31 17 52 28 SE
17.05.2019 04:00:00 1,8 -4,0 39 21 65 35 SSE
17.05.2019 03:00:00 0,8 -4,7 48 26 61 33 SSE
17.05.2019 02:00:00 0,3 -4,2 48 26 70 38 S
17.05.2019 01:00:00 0,4 -3,5 46 25 67 36 S
17.05.2019 00:00:00 0,6 -2,6 35 19 59 32 S
16.05.2019 23:00:00 0,7 -1,9 44 24 63 34 S
16.05.2019 22:00:00 1,5 -2,7 29 16 50 27 SSE
16.05.2019 21:00:00 2,1 -2,7 31 17 63 34 SSE
16.05.2019 20:00:00 2,9 -0,9 42 23 55 30 S
16.05.2019 19:00:00 4,4 0,0 41 22 52 28 SSE
16.05.2019 18:00:00 5,5 -0,9 42 23 52 28 SSE
16.05.2019 17:00:00 6,5 -2,2 42 23 65 35 SSE
16.05.2019 16:00:00 6,6 -2,2 50 27 67 36 SE
16.05.2019 15:00:00 7,4 -2,7 44 24 59 32 SE
16.05.2019 14:00:00 7,1 -3,2 42 23 67 36 SSE
16.05.2019 13:00:00 6,9 -0,3 46 25 68 37 SSE
16.05.2019 12:00:00 6,8 0,3 46 25 59 32 SSE
16.05.2019 11:00:00 6,7 0,8 35 19 48 26 S
16.05.2019 10:00:00 5,9 1,1 35 19 - - S
16.05.2019 09:00:00 5,3 -0,7 22 12 - - S
16.05.2019 08:00:00 5,5 -3,1 18 10 - - S
16.05.2019 07:00:00 4,4 -0,9 21 11 - - S
16.05.2019 06:00:00 4,0 0,5 21 11 - - S
16.05.2019 05:00:00 3,9 2,8 28 15 - - S
16.05.2019 04:00:00 3,9 3,1 21 11 - - S
16.05.2019 03:00:00 4,5 2,9 18 10 - - S
16.05.2019 02:00:00 6,1 1,7 15 8 - - S
16.05.2019 01:00:00 6,7 4,4 11 6 - - S
16.05.2019 00:00:00 7,7 5,6 13 7 - - S
15.05.2019 23:00:00 8,1 5,4 11 6 - - SSE
15.05.2019 22:00:00 9,5 6,9 11 6 - - SSE
15.05.2019 21:00:00 8,6 6,5 18 10 - - S
15.05.2019 20:00:00 9,7 6,6 24 13 - - S
15.05.2019 19:00:00 10,9 6,4 35 19 - - S
15.05.2019 18:00:00 12,7 5,8 31 17 - - S
15.05.2019 17:00:00 14,1 4,1 18 10 - - SSW
15.05.2019 16:00:00 13,3 4,2 15 8 59 32 S
15.05.2019 15:00:00 14,6 3,0 5 3 - - NW
15.05.2019 14:00:00 13,4 0,4 9 5 - - NW
15.05.2019 13:00:00 14,9 -0,6 8 4 - - W
15.05.2019 12:00:00 13,5 1,6 11 6 - - SW
15.05.2019 11:00:00 12,0 2,0 15 8 - - S
15.05.2019 10:00:00 11,9 1,5 5 3 - - W
15.05.2019 09:00:00 10,3 0,0 15 8 - - S
15.05.2019 08:00:00 9,6 -0,4 16 9 - - SSW
15.05.2019 07:00:00 8,9 0,1 21 11 - - SSW
15.05.2019 06:00:00 8,1 2,8 18 10 - - SSW
15.05.2019 05:00:00 7,0 3,9 24 13 - - SSW
15.05.2019 04:00:00 7,0 4,2 31 17 - - SSW

tt = temperature
td = dewpoint
ff = wind speed
fx = gusts
dd = wind direction

Next stations